• Join FlightAware (Why Join?)
  • Login
  • US Flag 
08:13AM EDT


 

Airport Tracker/Info


-or-


 

Live Flight TrackerFlight Track Log ✈ ACA201 ✈ 02-Jun-2012 ✈ CYYC - CYVR

Flight Track Log - Related Links

Times and Time Zones

All times are in EDT time to prevent confusion due to time zone crossing. See the ACA201 flight status page for this flight to view local times or setup timezone preferences in your user account.

Time Position Orientation Groundspeed Altitude Reporting Facility
EDT Latitude Longitude Course Direction KTS MPH feet Rate Location/Type
08:12AM 51.0833 -114.0333 348° North 110 127 3,700  Level Edmonton Center
08:13AM 51.1333 -114.0500 360° North 180 207 6,100 2,640 Climbing Edmonton Center
08:14AM 51.1833 -114.0500 270° West 200 230 9,000 3,000 Climbing Edmonton Center
08:15AM 51.1833 -114.1667 242° Southwest 250 288 12,100 2,580 Climbing Edmonton Center
08:16AM 51.1500 -114.2667 260° West 290 334 14,200 2,460 Climbing Edmonton Center
08:17AM 51.1333 -114.4167 252° West 330 380 17,100 3,180 Climbing Edmonton Center
08:18AM 51.1000 -114.5833 270° West 350 403 20,600 3,000 Climbing Edmonton Center
08:19AM 51.1000 -114.7167 254° West 350 403 23,200 2,460 Climbing Edmonton Center
08:20AM 51.0667 -114.9000 260° West 360 414 25,600 2,400 Climbing Edmonton Center
08:21AM 51.0500 -115.0500 251° West 370 426 28,100 2,460 Climbing Edmonton Center
08:22AM 51.0167 -115.2000 252° West 370 426 30,600 2,160 Climbing Edmonton Center
08:23AM 50.9833 -115.3667 248° West 360 414 32,500 1,920 Climbing Edmonton Center
08:24AM 50.9667 -115.4333 261° West 360 414 34,500 1,860 Climbing Vancouver Center
08:25AM 50.9500 -115.6000 259° West 350 403 36,200 1,320 Climbing Vancouver Center
08:26AM 50.9333 -115.7333 245° Southwest 350 403 37,200 900 Climbing Vancouver Center
08:27AM 50.8833 -115.9000 261° West 360 414 38,000 360 Climbing Vancouver Center
08:28AM 50.8667 -116.0667 252° West 380 437 38,000  Level Vancouver Center
08:29AM 50.8333 -116.2333 245° Southwest 400 460 38,000  Level Vancouver Center
08:30AM 50.7833 -116.4000 257° West 400 460 38,000  Level Vancouver Center
08:31AM 50.7500 -116.6333 253° West 390 449 38,000  Level Edmonton Center
08:32AM 50.7167 -116.8000 254° West 400 460 38,000  Level Edmonton Center
08:33AM 50.6833 -116.9833 251° West 400 460 38,000  Level Edmonton Center
08:34AM 50.6500 -117.1333 255° West 400 460 38,000  Level Edmonton Center
08:35AM 50.6333 -117.2333 253° West 390 449 38,000  Level Vancouver Center
08:36AM 50.6000 -117.4000 245° Southwest 390 449 38,000  Level Vancouver Center
08:37AM 50.5500 -117.5667 261° West 390 449 38,000  Level Vancouver Center
08:38AM 50.5333 -117.7333 244° Southwest 400 460 38,000  Level Vancouver Center
08:39AM 50.4667 -117.9500 253° West 390 449 38,000  Level Edmonton Center
08:40AM 50.4333 -118.1167 251° West 390 449 38,000  Level Edmonton Center
08:41AM 50.4000 -118.2667 261° West 390 449 38,000  Level Edmonton Center
08:42AM 50.3833 -118.4333 245° Southwest 390 449 38,000  Level Edmonton Center
08:43AM 50.3333 -118.6000 251° West 390 449 38,000  Level Edmonton Center
08:44AM 50.3000 -118.7500 253° West 390 449 38,000  Level Edmonton Center
08:45AM 50.2667 -118.9167 243° Southwest 390 449 38,000  Level Edmonton Center
08:46AM 50.2167 -119.0667 251° West 390 449 38,000  Level Edmonton Center
08:47AM 50.1833 -119.2167 254° West 380 437 38,000  Level Edmonton Center
08:48AM 50.1500 -119.4000 251° West 390 449 38,000  Level Edmonton Center
08:49AM 50.1167 -119.5500 253° West 390 449 38,000  Level Edmonton Center
08:50AM 50.1000 -119.6333 247° West 390 449 38,000  Level Vancouver Center
08:51AM 50.0500 -119.8167 261° West 390 449 38,000  Level Vancouver Center
08:52AM 50.0333 -119.9833 243° Southwest 400 460 38,000  Level Vancouver Center
08:53AM 49.9833 -120.1333 245° Southwest 400 460 38,000  Level Vancouver Center
08:54AM 49.9333 -120.3000 251° West 400 460 38,000  Level Vancouver Center
08:55AM 49.9000 -120.4500 253° West 400 460 38,000  Level Vancouver Center
08:56AM 49.8667 -120.6167 251° West 390 449 38,000  Level Vancouver Center
08:57AM 49.8333 -120.7667 245° Southwest 390 449 38,000 -480 Level Vancouver Center
08:58AM 49.7833 -120.9333 251° West 400 460 37,100 -960 Descending Vancouver Center
08:59AM 49.7500 -121.0833 253° West 380 437 36,100 -1,020 Descending Vancouver Center
09:00AM 49.7167 -121.2500 246° West 370 426 35,100 -1,320 Descending Vancouver Center
09:01AM 49.6833 -121.3667 245° Southwest 380 437 33,500 -2,100 Descending Vancouver Center
09:02AM 49.6333 -121.5333 251° West 380 437 31,000 -2,400 Descending Vancouver Center
09:03AM 49.6000 -121.6833 249° West 370 426 28,800 -2,160 Descending Vancouver Center
09:04AM 49.5667 -121.8167 240° Southwest 350 403 26,800 -2,160 Descending Vancouver Center
09:05AM 49.5167 -121.9500 259° West 330 380 24,600 -2,100 Descending Vancouver Center
09:06AM 49.5000 -122.0833 237° Southwest 330 380 22,700 -2,040 Descending Vancouver Center
09:07AM 49.4500 -122.2000 237° Southwest 330 380 20,600 -1,920 Descending Vancouver Center
09:08AM 49.4000 -122.3167 233° Southwest 330 380 18,900 -1,680 Descending Vancouver Center
09:09AM 49.3500 -122.4167 240° Southwest 330 380 17,300 -1,680 Descending Vancouver Center
09:10AM 49.3000 -122.5500 243° Southwest 310 357 15,600 -1,620 Descending Vancouver Center
09:11AM 49.2667 -122.6500 249° West 300 345 14,100 -1,800 Descending Vancouver Center
09:12AM 49.2333 -122.7833 256° West 300 345 12,000 -1,680 Descending Vancouver Center
09:13AM 49.2167 -122.8833 282° West 280 322 10,800 -1,020 Descending Vancouver Center
09:14AM 49.2333 -123.0000 282° West 270 311 10,000 -1,080 Descending Vancouver Center
09:15AM 49.2500 -123.1167 282° West 270 311 8,700 -1,380 Descending Vancouver Center
09:16AM 49.2667 -123.2333 270° West 270 311 7,300 -1,440 Descending Vancouver Center
09:17AM 49.2667 -123.3333 284° West 260 299 5,900 -1,140 Descending Vancouver Center
09:18AM 49.2833 -123.4333 270° West 240 276 5,100 -960 Descending Vancouver Center
09:19AM 49.2833 -123.5167 204° Southwest 220 253 4,000 -1,380 Descending Vancouver Center
09:20AM 49.2333 -123.5500 121° Southeast 220 253 2,400 -1,020 Descending Vancouver Center
09:21AM 49.2000 -123.4667 107° East 200 230 2,000 -240 Descending Vancouver Center
09:22AM 49.1833 -123.3833 107° East 200 230 2,000  Level Vancouver Center